Time;durP1;ratioP1;P1;durP2;ratioP2;P2;SDS_P1;SDS_P2;PMS_P1;PMS_P2;Temp;Humidity;BMP_temperature;BMP_pressure;BME280_temperature;BME280_humidity;BME280_pressure;Samples;Min_cycle;Max_cycle;Signal;HPM_P1;HPM_P2
2022/12/09 00:00:31;;;;;;;;;;;;;;;10.38;46.48;98563.91;4514746;31;34933;-89
2022/12/09 00:02:58;;;;;;;;;;;;;;;10.63;46.37;98561.37;4514755;31;34203;-84
2022/12/09 00:05:26;;;;;;;;;;;;;;;10.88;45.85;98562.31;4511151;31;34743;-86
2022/12/09 00:07:53;;;;;;;;;;;;;;;10.45;46.91;98554.41;4512484;31;34097;-83
2022/12/09 00:10:21;;;;;;;;;;;;;;;10.58;46.40;98543.22;4514687;31;34877;-87
2022/12/09 00:12:48;;;;;;;;;;;;;;;10.44;46.86;98550.09;4515213;31;33430;-88
2022/12/09 00:15:16;;;;;;;;;;;;;;;11.23;45.33;98548.50;4513362;31;33775;-89
2022/12/09 00:17:43;;;;;;;;;;;;;;;11.60;44.65;98563.22;4514934;31;34218;-87
2022/12/09 00:20:11;;;;;;;;;;;;;;;11.22;44.75;98571.00;4514688;31;35016;-88
2022/12/09 00:22:38;;;;;;;;;;;;;;;11.42;44.72;98576.19;4515084;31;33408;-89
2022/12/09 00:25:06;;;;;;;;;;;;;;;9.98;47.61;98586.13;4514544;31;34238;-89
2022/12/09 00:27:33;;;;;;;;;;;;;;;10.15;47.72;98584.50;4515018;31;34962;-83
2022/12/09 00:30:00;;;;;;;;;;;;;;;10.14;47.84;98576.69;4514660;31;34314;-88
2022/12/09 00:32:28;;;;;;;;;;;;;;;9.74;48.07;98582.53;4514813;31;33956;-85
2022/12/09 00:34:56;;;;;;;;;;;;;;;8.61;51.65;98586.69;4513477;31;34988;-88
2022/12/09 00:37:23;;;;;;;;;;;;;;;9.49;49.92;98583.19;4514659;31;34239;-89
2022/12/09 00:39:51;;;;;;;;;;;;;;;9.29;50.21;98577.88;4514840;31;34233;-90
2022/12/09 00:42:18;;;;;;;;;;;;;;;10.17;48.09;98568.97;4512237;31;33094;-89
2022/12/09 00:44:47;;;;;;;;;;;;;;;10.30;47.39;98567.31;4511465;31;34662;-86
2022/12/09 00:47:15;;;;;;;;;;;;;;;10.60;47.02;98562.22;4500171;31;32482;-87
2022/12/09 00:49:42;;;;;;;;;;;;;;;11.01;46.23;98564.06;4514504;31;34312;-88
2022/12/09 00:52:10;;;;;;;;;;;;;;;10.50;47.21;98555.31;4514872;31;33546;-90
2022/12/09 00:54:37;;;;;;;;;;;;;;;10.82;46.30;98562.28;4512896;31;34348;-84
2022/12/09 00:57:05;;;;;;;;;;;;;;;11.12;45.62;98570.13;4514164;31;35267;-89
2022/12/09 00:59:32;;;;;;;;;;;;;;;10.63;46.61;98582.97;4513649;31;33823;-86
2022/12/09 01:02:01;;;;;;;;;;;;;;;11.02;46.06;98588.25;4514274;31;33055;-88
2022/12/09 01:04:28;;;;;;;;;;;;;;;11.48;45.15;98586.59;4514491;31;34199;-89
2022/12/09 01:06:55;;;;;;;;;;;;;;;11.77;44.54;98588.28;4514215;31;35264;-89
2022/12/09 01:09:24;;;;;;;;;;;;;;;11.95;44.03;98585.69;4513247;31;33850;-87
2022/12/09 01:11:51;;;;;;;;;;;;;;;11.56;44.65;98589.19;4514499;31;34048;-90
2022/12/09 01:14:18;;;;;;;;;;;;;;;10.44;47.16;98576.88;4514306;31;35074;-90
2022/12/09 01:16:46;;;;;;;;;;;;;;;9.66;49.27;98581.63;4513858;31;35233;-86
2022/12/09 01:19:13;;;;;;;;;;;;;;;10.97;46.23;98572.69;4513727;31;34472;-89
2022/12/09 01:21:40;;;;;;;;;;;;;;;10.80;46.73;98574.41;4513794;31;33279;-90
2022/12/09 01:24:09;;;;;;;;;;;;;;;10.92;46.27;98574.44;4513879;31;34702;-87
2022/12/09 01:26:36;;;;;;;;;;;;;;;11.42;45.09;98571.00;4498733;31;34419;-89
2022/12/09 01:29:04;;;;;;;;;;;;;;;11.05;45.82;98577.88;4511282;31;34502;-89
2022/12/09 01:31:32;;;;;;;;;;;;;;;11.21;45.58;98569.25;4513749;31;33428;-88
2022/12/09 01:34:01;;;;;;;;;;;;;;;11.29;45.15;98570.16;4514192;31;35054;-88
2022/12/09 01:36:29;;;;;;;;;;;;;;;11.69;44.53;98560.59;4512541;31;34207;-88
2022/12/09 01:38:57;;;;;;;;;;;;;;;11.28;45.35;98563.19;4496293;31;33754;-90
2022/12/09 01:41:25;;;;;;;;;;;;;;;10.58;46.93;98555.34;4513251;31;34114;-90
2022/12/09 01:44:29;;;;;;;;;;;;;;;10.88;46.13;98555.41;4513519;31;34176;-88
2022/12/09 01:46:57;;;;;;;;;;;;;;;8.85;51.06;98564.53;4448578;32;34192;-89
2022/12/09 01:49:30;;;;;;;;;;;;;;;10.10;48.42;98568.06;4501486;31;33793;-89
2022/12/09 01:52:08;;;;;;;;;;;;;;;9.32;49.93;98571.84;4506266;31;34167;-88
2022/12/09 01:54:36;;;;;;;;;;;;;;;9.96;48.99;98560.22;4499084;31;34342;-88
2022/12/09 01:57:03;;;;;;;;;;;;;;;9.86;49.36;98568.78;4499211;31;35242;-89
2022/12/09 01:59:30;;;;;;;;;;;;;;;10.93;46.89;98565.78;4499484;31;34198;-89
2022/12/09 02:01:59;;;;;;;;;;;;;;;11.16;46.40;98569.25;4502609;31;32927;-84
2022/12/09 02:04:27;;;;;;;;;;;;;;;11.25;46.27;98559.75;4512359;31;33616;-90
2022/12/09 02:06:56;;;;;;;;;;;;;;;11.12;46.40;98557.16;4514009;31;34944;-88
2022/12/09 02:09:24;;;;;;;;;;;;;;;10.22;47.74;98560.31;4508860;31;34046;-89
2022/12/09 02:11:55;;;;;;;;;;;;;;;10.55;47.66;98558.75;4509283;31;33462;-88
2022/12/09 02:14:40;;;;;;;;;;;;;;;10.27;48.24;98556.97;4513018;31;34323;-88
2022/12/09 02:17:37;;;;;;;;;;;;;;;10.70;47.25;98543.25;4512649;31;34962;-88
2022/12/09 02:20:35;;;;;;;;;;;;;;;10.57;47.65;98538.03;4499659;31;33538;-87
2022/12/09 02:23:11;;;;;;;;;;;;;;;9.95;48.72;98544.66;4495542;31;33207;-89
2022/12/09 02:25:47;;;;;;;;;;;;;;;10.58;47.54;98538.06;4514399;31;34140;-88
2022/12/09 02:28:24;;;;;;;;;;;;;;;10.67;47.32;98537.19;4513194;31;33988;-89
2022/12/09 02:30:54;;;;;;;;;;;;;;;11.06;46.28;98539.00;4515629;31;34103;-86
2022/12/09 02:33:30;;;;;;;;;;;;;;;10.13;47.82;98544.75;4514759;31;33350;-88
2022/12/09 02:36:01;;;;;;;;;;;;;;;10.93;46.72;98550.22;4514820;31;34694;-90
2022/12/09 02:38:30;;;;;;;;;;;;;;;10.25;48.03;98541.38;4515910;31;35469;-90
2022/12/09 02:41:37;;;;;;;;;;;;;;;10.65;47.11;98531.16;4512166;31;34855;-87
2022/12/09 02:44:09;;;;;;;;;;;;;;;10.03;49.12;98532.63;4450128;32;34232;-89
2022/12/09 02:46:37;;;;;;;;;;;;;;;10.70;47.51;98532.03;4434590;32;34439;-89
2022/12/09 02:49:05;;;;;;;;;;;;;;;10.50;48.08;98531.97;4476299;31;34944;-85
2022/12/09 02:51:34;;;;;;;;;;;;;;;10.20;49.00;98536.16;4501831;31;33813;-83
2022/12/09 02:54:04;;;;;;;;;;;;;;;10.19;48.88;98531.84;4512363;31;33344;-89
2022/12/09 02:56:32;;;;;;;;;;;;;;;10.06;49.39;98526.59;4515452;31;34263;-87
2022/12/09 02:59:00;;;;;;;;;;;;;;;10.20;49.24;98533.56;4515545;31;34402;-86
2022/12/09 03:01:30;;;;;;;;;;;;;;;10.92;47.02;98538.13;4514355;31;34455;-90
2022/12/09 03:03:58;;;;;;;;;;;;;;;10.83;47.18;98527.72;4515535;31;33812;-89
2022/12/09 03:06:26;;;;;;;;;;;;;;;9.96;48.85;98526.56;4515237;31;34351;-90
2022/12/09 03:08:59;;;;;;;;;;;;;;;10.70;47.61;98522.50;4513660;31;35230;-89
2022/12/09 03:11:27;;;;;;;;;;;;;;;10.58;48.05;98522.50;4515249;31;33732;-88
2022/12/09 03:14:02;;;;;;;;;;;;;;;10.36;48.36;98524.16;4514502;31;33551;-86
2022/12/09 03:16:35;;;;;;;;;;;;;;;10.33;48.58;98525.88;4514999;31;34209;-90
2022/12/09 03:19:06;;;;;;;;;;;;;;;10.18;49.14;98537.87;4514353;31;33940;-89
2022/12/09 03:21:34;;;;;;;;;;;;;;;10.93;47.28;98545.03;4515543;31;33968;-88
2022/12/09 03:24:01;;;;;;;;;;;;;;;11.32;46.43;98540.72;4515093;31;33588;-90
2022/12/09 03:26:29;;;;;;;;;;;;;;;11.10;46.92;98537.25;4515102;31;34396;-87
2022/12/09 03:28:57;;;;;;;;;;;;;;;11.47;46.01;98538.09;4515348;31;34856;-87
2022/12/09 03:31:25;;;;;;;;;;;;;;;10.75;47.86;98539.81;4513509;31;33999;-88
2022/12/09 03:33:52;;;;;;;;;;;;;;;9.42;51.70;98542.59;4514944;31;33776;-90
2022/12/09 03:36:20;;;;;;;;;;;;;;;10.08;49.41;98528.34;4510020;31;35048;-89
2022/12/09 03:38:47;;;;;;;;;;;;;;;10.32;49.08;98531.91;4515267;31;34511;-89
2022/12/09 03:41:24;;;;;;;;;;;;;;;10.69;48.29;98532.91;4515315;31;35100;-90
2022/12/09 03:43:56;;;;;;;;;;;;;;;9.89;50.16;98522.22;4514345;31;33439;-89
2022/12/09 03:46:24;;;;;;;;;;;;;;;10.19;49.59;98529.25;4514035;31;34878;-85
2022/12/09 03:48:52;;;;;;;;;;;;;;;9.96;50.61;98530.84;4515564;31;35166;-87
2022/12/09 03:51:22;;;;;;;;;;;;;;;10.10;50.00;98536.09;4503705;31;34186;-85
2022/12/09 03:54:11;;;;;;;;;;;;;;;10.01;50.39;98525.72;4513792;31;34303;-88
2022/12/09 03:56:39;;;;;;;;;;;;;;;10.36;49.59;98531.06;4513735;31;34253;-87
2022/12/09 03:59:08;;;;;;;;;;;;;;;10.75;48.59;98519.91;4513809;31;33738;-86
2022/12/09 04:01:36;;;;;;;;;;;;;;;10.89;48.39;98522.53;4512469;31;34229;-86
2022/12/09 04:04:03;;;;;;;;;;;;;;;10.51;49.11;98515.56;4515150;31;33302;-88
2022/12/09 04:06:31;;;;;;;;;;;;;;;10.17;50.22;98510.25;4515241;31;34974;-88
2022/12/09 04:09:00;;;;;;;;;;;;;;;10.24;50.43;98513.72;4514788;31;35106;-89
2022/12/09 04:11:29;;;;;;;;;;;;;;;10.43;49.82;98525.03;4514082;31;34595;-88
2022/12/09 04:13:57;;;;;;;;;;;;;;;9.91;50.84;98523.06;4513706;31;33979;-84
2022/12/09 04:16:24;;;;;;;;;;;;;;;10.41;49.97;98512.06;4513991;31;34245;-89
2022/12/09 04:18:52;;;;;;;;;;;;;;;10.89;49.01;98514.75;4514863;31;34312;-90
2022/12/09 04:21:19;;;;;;;;;;;;;;;11.17;48.16;98506.16;4514540;31;33914;-90
2022/12/09 04:23:46;;;;;;;;;;;;;;;10.71;49.05;98510.41;4514930;31;33522;-87
2022/12/09 04:26:15;;;;;;;;;;;;;;;9.54;52.34;98515.94;4515132;31;33763;-88
2022/12/09 04:28:42;;;;;;;;;;;;;;;9.83;51.40;98514.41;4509072;31;34950;-89
2022/12/09 04:31:11;;;;;;;;;;;;;;;9.71;51.59;98515.22;4514848;31;34873;-86
2022/12/09 04:33:39;;;;;;;;;;;;;;;10.69;49.49;98510.44;4500834;31;32613;-86
2022/12/09 04:36:09;;;;;;;;;;;;;;;10.76;49.41;98515.59;4513958;31;33717;-90
2022/12/09 04:38:36;;;;;;;;;;;;;;;11.09;48.58;98507.84;4509441;31;34140;-87
2022/12/09 04:41:04;;;;;;;;;;;;;;;10.64;49.23;98508.66;4514410;31;34071;-86
2022/12/09 04:43:31;;;;;;;;;;;;;;;10.56;49.72;98497.44;4512956;31;33368;-88
2022/12/09 04:46:03;;;;;;;;;;;;;;;11.06;48.45;98497.50;4514048;31;34314;-88
2022/12/09 04:48:31;;;;;;;;;;;;;;;10.26;50.45;98493.88;4505828;31;33959;-89
2022/12/09 04:50:58;;;;;;;;;;;;;;;9.54;51.96;98501.28;4511812;31;33853;-90
2022/12/09 04:53:26;;;;;;;;;;;;;;;10.81;49.32;98504.38;4514684;31;33656;-90
2022/12/09 04:56:00;;;;;;;;;;;;;;;11.24;48.02;98503.53;4511986;31;34925;-89
2022/12/09 04:58:28;;;;;;;;;;;;;;;11.36;47.89;98511.28;4508115;31;34368;-91
2022/12/09 05:00:56;;;;;;;;;;;;;;;10.62;49.72;98502.62;4507082;31;33918;-88
2022/12/09 05:03:23;;;;;;;;;;;;;;;10.92;49.09;98499.22;4511238;31;32900;-89
2022/12/09 05:05:52;;;;;;;;;;;;;;;10.11;51.32;98499.84;4510522;31;34655;-87
2022/12/09 05:08:20;;;;;;;;;;;;;;;10.40;50.45;98501.72;4514432;31;33963;-84
2022/12/09 05:10:52;;;;;;;;;;;;;;;10.29;50.92;98504.25;4512940;31;34660;-90
2022/12/09 05:13:20;;;;;;;;;;;;;;;10.10;51.61;98498.13;4513640;31;34189;-90
2022/12/09 05:15:47;;;;;;;;;;;;;;;9.82;52.59;98502.31;4512933;31;34250;-84
2022/12/09 05:18:16;;;;;;;;;;;;;;;9.42;53.67;98498.63;4513700;31;33696;-87
2022/12/09 05:20:43;;;;;;;;;;;;;;;9.39;54.16;98496.00;4509383;31;33917;-89
2022/12/09 05:23:11;;;;;;;;;;;;;;;8.93;55.68;98500.84;4514275;31;33224;-87
2022/12/09 05:25:39;;;;;;;;;;;;;;;8.48;57.10;98492.66;4513782;31;33871;-90
2022/12/09 05:28:06;;;;;;;;;;;;;;;8.99;55.58;98495.72;4510210;31;34348;-87
2022/12/09 05:30:35;;;;;;;;;;;;;;;8.41;57.55;98500.34;4513353;31;35055;-88
2022/12/09 05:33:03;;;;;;;;;;;;;;;7.94;58.71;98508.38;4503918;31;34460;-86
2022/12/09 05:35:30;;;;;;;;;;;;;;;6.98;61.91;98513.00;4505050;31;34320;-89
2022/12/09 05:37:58;;;;;;;;;;;;;;;7.75;59.87;98508.13;4513285;31;35150;-87
2022/12/09 05:40:25;;;;;;;;;;;;;;;8.23;58.57;98499.25;4513671;31;34355;-87
2022/12/09 05:42:53;;;;;;;;;;;;;;;7.51;60.39;98503.50;4513499;31;33192;-86
2022/12/09 05:45:20;;;;;;;;;;;;;;;7.35;61.31;98503.25;4501462;31;34895;-83
2022/12/09 05:47:47;;;;;;;;;;;;;;;7.63;60.12;98496.78;4513192;31;35925;-88
2022/12/09 05:50:15;;;;;;;;;;;;;;;7.89;60.00;98486.81;4512912;31;34039;-86
2022/12/09 05:52:43;;;;;;;;;;;;;;;9.07;56.34;98491.47;4512224;31;34168;-83
2022/12/09 05:55:11;;;;;;;;;;;;;;;9.11;55.96;98485.47;4513571;31;34591;-86
2022/12/09 05:57:38;;;;;;;;;;;;;;;9.18;56.14;98484.69;4515988;31;33909;-84
2022/12/09 06:00:06;;;;;;;;;;;;;;;9.09;56.10;98479.44;4515899;31;33822;-88
2022/12/09 06:02:37;;;;;;;;;;;;;;;8.82;56.60;98479.19;4515874;31;34170;-88
2022/12/09 06:05:07;;;;;;;;;;;;;;;8.82;56.48;98484.37;4515079;31;34172;-88
2022/12/09 06:07:34;;;;;;;;;;;;;;;9.16;55.62;98491.53;4515751;31;34239;-88
2022/12/09 06:10:02;;;;;;;;;;;;;;;9.73;54.43;98481.56;4516029;31;34494;-88
2022/12/09 06:12:30;;;;;;;;;;;;;;;8.97;56.24;98481.91;4515440;31;33518;-90
2022/12/09 06:14:58;;;;;;;;;;;;;;;9.34;55.63;98487.38;4514592;31;33770;-86
2022/12/09 06:17:25;;;;;;;;;;;;;;;9.25;55.86;98475.25;4515800;31;34252;-88
2022/12/09 06:19:53;;;;;;;;;;;;;;;10.11;53.70;98479.13;4515821;31;34300;-89
2022/12/09 06:22:20;;;;;;;;;;;;;;;9.67;54.56;98481.53;4515839;31;34173;-89
2022/12/09 06:24:48;;;;;;;;;;;;;;;9.06;56.34;98476.84;4515144;31;35093;-88
2022/12/09 06:27:23;;;;;;;;;;;;;;;9.77;54.36;98474.66;4514806;31;34132;-85
2022/12/09 06:29:50;;;;;;;;;;;;;;;9.59;54.66;98476.31;4516179;31;33483;-89
2022/12/09 06:32:17;;;;;;;;;;;;;;;10.02;53.94;98479.09;4515747;31;34509;-88
2022/12/09 06:34:45;;;;;;;;;;;;;;;9.69;54.48;98475.50;4515907;31;33888;-84
2022/12/09 06:37:16;;;;;;;;;;;;;;;8.72;57.51;98484.31;4516231;31;34157;-90
2022/12/09 06:39:43;;;;;;;;;;;;;;;9.83;55.00;98477.28;4515863;31;34344;-89
2022/12/09 06:42:11;;;;;;;;;;;;;;;9.91;54.47;98470.44;4515666;31;34243;-90
2022/12/09 06:44:39;;;;;;;;;;;;;;;9.43;55.46;98482.25;4514507;31;34564;-86
2022/12/09 06:47:06;;;;;;;;;;;;;;;9.95;54.52;98473.03;4515391;31;33577;-89
2022/12/09 06:49:34;;;;;;;;;;;;;;;10.10;54.44;98471.38;4514691;31;34123;-89
2022/12/09 06:52:02;;;;;;;;;;;;;;;8.86;56.90;98475.78;4515987;31;34134;-89
2022/12/09 06:54:29;;;;;;;;;;;;;;;8.68;58.36;98484.25;4515648;31;34679;-88
2022/12/09 06:56:57;;;;;;;;;;;;;;;9.66;55.96;98475.50;4515880;31;34339;-89
2022/12/09 06:59:24;;;;;;;;;;;;;;;9.82;54.86;98466.09;4516075;31;34280;-90
2022/12/09 07:01:52;;;;;;;;;;;;;;;9.53;56.13;98468.50;4515678;31;33604;-90
2022/12/09 07:04:21;;;;;;;;;;;;;;;8.56;58.77;98469.53;4515628;31;34956;-91
2022/12/09 07:06:49;;;;;;;;;;;;;;;9.57;56.05;98454.72;4515116;31;34843;-91
2022/12/09 07:09:17;;;;;;;;;;;;;;;9.32;56.81;98463.19;4515812;31;34483;-91
2022/12/09 07:11:46;;;;;;;;;;;;;;;9.04;57.71;98460.44;4515627;31;33626;-89
2022/12/09 07:14:14;;;;;;;;;;;;;;;9.37;57.09;98457.22;4515873;31;34708;-89
2022/12/09 07:16:42;;;;;;;;;;;;;;;10.13;54.83;98466.19;4515610;31;34130;-90
2022/12/09 07:19:15;;;;;;;;;;;;;;;10.58;53.80;98462.03;4516096;31;33536;-85
2022/12/09 07:21:42;;;;;;;;;;;;;;;9.84;55.78;98463.50;4514905;31;34249;-86
2022/12/09 07:24:11;;;;;;;;;;;;;;;9.63;56.29;98470.31;4516090;31;34276;-90
2022/12/09 07:26:39;;;;;;;;;;;;;;;9.34;56.60;98471.84;4515672;31;35270;-90
2022/12/09 07:29:06;;;;;;;;;;;;;;;8.98;58.67;98473.31;4515411;31;34025;-89
2022/12/09 07:31:34;;;;;;;;;;;;;;;8.67;59.47;98473.03;4515332;31;34198;-90
2022/12/09 07:34:02;;;;;;;;;;;;;;;7.88;62.13;98472.16;4515598;31;34232;-90
2022/12/09 07:36:30;;;;;;;;;;;;;;;8.23;61.06;98468.28;4515836;31;35037;-90
2022/12/09 07:38:59;;;;;;;;;;;;;;;8.17;61.50;98463.03;4501575;31;34169;-90
2022/12/09 07:41:27;;;;;;;;;;;;;;;9.11;58.56;98459.63;4515022;31;32723;-89
2022/12/09 07:43:55;;;;;;;;;;;;;;;8.83;59.72;98460.28;4515569;31;34748;-91
2022/12/09 07:46:24;;;;;;;;;;;;;;;8.91;59.17;98456.91;4514086;31;35139;-91
2022/12/09 07:48:52;;;;;;;;;;;;;;;7.54;63.92;98461.44;4514163;31;35018;-88
2022/12/09 07:51:19;;;;;;;;;;;;;;;8.80;59.95;98453.34;4501110;31;34235;-90
2022/12/09 07:53:48;;;;;;;;;;;;;;;8.77;59.53;98456.78;4515401;31;33957;-89
2022/12/09 07:56:16;;;;;;;;;;;;;;;8.96;59.12;98459.50;4515386;31;35269;-90
2022/12/09 07:58:45;;;;;;;;;;;;;;;8.89;59.56;98450.84;4513808;31;35128;-90
2022/12/09 08:01:14;;;;;;;;;;;;;;;9.42;58.01;98444.28;4515324;31;34063;-91
2022/12/09 08:03:42;;;;;;;;;;;;;;;9.49;57.43;98448.66;4515598;31;34175;-85
2022/12/09 08:06:13;;;;;;;;;;;;;;;10.05;56.02;98442.88;4515019;31;34289;-90
2022/12/09 08:08:41;;;;;;;;;;;;;;;9.92;56.82;98441.06;4514095;31;34459;-90
2022/12/09 08:11:13;;;;;;;;;;;;;;;9.57;57.65;98444.38;4513921;31;33507;-87
2022/12/09 08:13:41;;;;;;;;;;;;;;;10.40;55.33;98444.72;4515296;31;35116;-90
2022/12/09 08:16:11;;;;;;;;;;;;;;;9.98;56.48;98439.37;4515235;31;35276;-90
2022/12/09 08:18:39;;;;;;;;;;;;;;;10.14;56.14;98440.28;4513736;31;33882;-90
2022/12/09 08:21:09;;;;;;;;;;;;;;;9.90;56.95;98428.12;4515193;31;33484;-89
2022/12/09 08:23:37;;;;;;;;;;;;;;;9.75;57.14;98421.19;4514037;31;34732;-89
2022/12/09 08:26:05;;;;;;;;;;;;;;;9.08;59.32;98428.56;4513898;31;35149;-87
2022/12/09 08:28:32;;;;;;;;;;;;;;;8.48;61.68;98433.25;4513820;31;34723;-89
2022/12/09 08:31:07;;;;;;;;;;;;;;;8.72;60.95;98427.44;4513953;31;33515;-90
2022/12/09 08:33:36;;;;;;;;;;;;;;;8.65;61.29;98424.81;4515030;31;33732;-90
2022/12/09 08:36:06;;;;;;;;;;;;;;;8.38;61.52;98422.84;4514951;31;34203;-89
2022/12/09 08:38:33;;;;;;;;;;;;;;;9.17;59.77;98423.47;4513683;31;34098;-89
2022/12/09 08:41:15;;;;;;;;;;;;;;;8.23;62.41;98424.38;4515053;31;34338;-89
2022/12/09 08:43:43;;;;;;;;;;;;;;;8.54;61.83;98419.53;4485917;31;917888;-90
2022/12/09 08:46:10;;;;;;;;;;;;;;;8.75;61.20;98417.16;4513173;31;35220;-89
2022/12/09 08:48:38;;;;;;;;;;;;;;;7.96;63.89;98412.06;4514893;31;33678;-89
2022/12/09 08:51:06;;;;;;;;;;;;;;;8.13;63.66;98407.06;4513522;31;34127;-89
2022/12/09 08:53:34;;;;;;;;;;;;;;;8.44;62.77;98407.37;4513326;31;34404;-89
2022/12/09 08:56:08;;;;;;;;;;;;;;;8.73;61.93;98408.50;4515004;31;34912;-90
2022/12/09 08:58:36;;;;;;;;;;;;;;;9.02;60.81;98405.28;4513641;31;33921;-89
2022/12/09 09:01:04;;;;;;;;;;;;;;;8.15;63.53;98409.69;4515031;31;34177;-89
2022/12/09 09:03:31;;;;;;;;;;;;;;;7.75;64.65;98397.19;4514080;31;33889;-86
2022/12/09 09:06:03;;;;;;;;;;;;;;;8.39;63.15;98396.16;4514625;31;34406;-88
2022/12/09 09:08:37;;;;;;;;;;;;;;;8.95;60.95;98386.25;4514666;31;34127;-89
2022/12/09 09:11:13;;;;;;;;;;;;;;;8.99;60.88;98385.44;4513747;31;33564;-89
2022/12/09 09:13:40;;;;;;;;;;;;;;;8.20;62.60;98383.03;4514595;31;34142;-89
2022/12/09 09:16:09;;;;;;;;;;;;;;;8.94;60.78;98384.53;4514657;31;35355;-89
2022/12/09 09:18:37;;;;;;;;;;;;;;;8.65;61.84;98386.03;4514468;31;34329;-89
2022/12/09 09:21:06;;;;;;;;;;;;;;;9.68;58.76;98382.31;4514584;31;33110;-90
2022/12/09 09:23:34;;;;;;;;;;;;;;;8.49;62.14;98379.91;4514905;31;34011;-89
2022/12/09 09:26:01;;;;;;;;;;;;;;;7.83;64.48;98376.63;4514276;31;34208;-90
2022/12/09 09:28:28;;;;;;;;;;;;;;;8.39;62.78;98370.31;4514404;31;34045;-87
2022/12/09 09:31:04;;;;;;;;;;;;;;;9.50;59.72;98362.41;4516635;31;33187;-88
2022/12/09 09:33:32;;;;;;;;;;;;;;;9.17;59.65;98361.41;4516734;31;34832;-88
2022/12/09 09:36:01;;;;;;;;;;;;;;;9.65;58.56;98359.88;4515315;31;33829;-89
2022/12/09 09:38:36;;;;;;;;;;;;;;;10.20;56.63;98354.84;4514966;31;34889;-86
2022/12/09 09:41:13;;;;;;;;;;;;;;;9.24;59.62;98347.66;4515437;31;34109;-89
2022/12/09 09:43:42;;;;;;;;;;;;;;;8.19;63.63;98354.63;4516147;31;35061;-88
2022/12/09 09:46:14;;;;;;;;;;;;;;;8.24;62.56;98351.22;4514925;31;34741;-90
2022/12/09 09:48:42;;;;;;;;;;;;;;;8.72;61.83;98352.50;4515377;31;33944;-89
2022/12/09 09:51:12;;;;;;;;;;;;;;;8.94;60.96;98339.69;4514976;31;33406;-88
2022/12/09 09:53:40;;;;;;;;;;;;;;;8.77;61.07;98343.06;4514993;31;35022;-89
2022/12/09 09:56:17;;;;;;;;;;;;;;;8.61;61.65;98333.47;4516286;31;34505;-89
2022/12/09 09:58:44;;;;;;;;;;;;;;;8.56;62.22;98334.28;4515965;31;34175;-89
2022/12/09 10:01:13;;;;;;;;;;;;;;;8.85;60.92;98322.44;4516269;31;33376;-90
2022/12/09 10:03:41;;;;;;;;;;;;;;;8.43;62.56;98323.00;4515200;31;34173;-90
2022/12/09 10:06:13;;;;;;;;;;;;;;;9.15;60.43;98308.81;4516298;31;34218;-88
2022/12/09 10:08:44;;;;;;;;;;;;;;;8.62;62.09;98309.37;4516490;31;34207;-89
2022/12/09 10:11:17;;;;;;;;;;;;;;;7.89;64.17;98304.44;4514886;31;33468;-90
2022/12/09 10:14:05;;;;;;;;;;;;;;;7.37;66.87;98292.72;4516528;31;33854;-90
2022/12/09 10:16:33;;;;;;;;;;;;;;;8.01;64.53;98285.63;4516167;31;34078;-90
2022/12/09 10:19:02;;;;;;;;;;;;;;;7.66;65.28;98281.00;4516512;31;34853;-89
2022/12/09 10:21:44;;;;;;;;;;;;;;;8.09;64.14;98267.62;4515003;31;34360;-89
2022/12/09 10:24:27;;;;;;;;;;;;;;;7.50;66.38;98261.03;4516065;31;34822;-89
2022/12/09 10:27:02;;;;;;;;;;;;;;;8.49;63.61;98248.16;4515615;31;34504;-90
2022/12/09 10:29:37;;;;;;;;;;;;;;;8.13;63.82;98243.56;4514610;31;34372;-89
2022/12/09 10:32:06;;;;;;;;;;;;;;;8.50;62.61;98248.16;4514568;31;34401;-84
2022/12/09 10:34:34;;;;;;;;;;;;;;;8.07;64.26;98226.31;4514416;31;34113;-89
2022/12/09 10:37:01;;;;;;;;;;;;;;;8.27;64.06;98218.69;4515784;31;33893;-90
2022/12/09 10:39:29;;;;;;;;;;;;;;;8.00;64.53;98211.63;4515851;31;34443;-90
2022/12/09 10:44:43;;;;;;;;;;;;;;;7.82;65.97;98194.28;4515832;31;35047;-89
2022/12/09 10:47:23;;;;;;;;;;;;;;;7.52;66.54;98200.03;4514201;31;34416;-88
2022/12/09 10:49:52;;;;;;;;;;;;;;;7.63;66.62;98188.09;4515843;31;33992;-90
2022/12/09 10:52:27;;;;;;;;;;;;;;;7.10;68.12;98185.00;4514365;31;33038;-88
2022/12/09 10:54:54;;;;;;;;;;;;;;;7.89;65.58;98182.28;4514243;31;34526;-88
2022/12/09 10:57:23;;;;;;;;;;;;;;;7.59;66.61;98182.91;4514520;31;34116;-91
2022/12/09 10:59:55;;;;;;;;;;;;;;;7.71;65.77;98186.44;4515445;31;34235;-89
2022/12/09 11:02:25;;;;;;;;;;;;;;;7.86;65.30;98177.97;4515772;31;33612;-88
2022/12/09 11:04:53;;;;;;;;;;;;;;;7.95;65.27;98164.25;4515745;31;34295;-87
2022/12/09 11:07:21;;;;;;;;;;;;;;;7.90;65.70;98159.06;4515607;31;34515;-89
2022/12/09 11:10:10;;;;;;;;;;;;;;;8.09;64.77;98147.16;4514200;31;34373;-87
2022/12/09 11:12:39;;;;;;;;;;;;;;;7.85;65.86;98147.00;4505515;31;33079;-89
2022/12/09 11:15:11;;;;;;;;;;;;;;;7.26;67.67;98141.34;4514372;31;34224;-87
2022/12/09 11:17:40;;;;;;;;;;;;;;;7.08;68.42;98143.72;4515384;31;35215;-90
2022/12/09 11:20:15;;;;;;;;;;;;;;;7.52;67.36;98131.25;4514172;31;35131;-89
2022/12/09 11:22:44;;;;;;;;;;;;;;;7.30;67.79;98132.78;4515402;31;33770;-86
2022/12/09 11:25:14;;;;;;;;;;;;;;;7.01;69.08;98141.97;4514144;31;34631;-90
2022/12/09 11:27:47;;;;;;;;;;;;;;;7.14;67.97;98141.22;4515671;31;34113;-90
2022/12/09 11:30:26;;;;;;;;;;;;;;;7.42;68.12;98131.16;4515352;31;34313;-90
2022/12/09 11:32:55;;;;;;;;;;;;;;;7.33;68.50;98142.25;4514460;31;33501;-90
2022/12/09 11:35:26;;;;;;;;;;;;;;;7.94;65.44;98132.44;4515232;31;34306;-88
2022/12/09 11:37:53;;;;;;;;;;;;;;;7.68;66.22;98124.50;4515353;31;34132;-89
2022/12/09 11:40:20;;;;;;;;;;;;;;;7.63;67.17;98126.19;4515521;31;34697;-86
2022/12/09 11:42:49;;;;;;;;;;;;;;;7.77;66.57;98124.59;4513996;31;33850;-90
2022/12/09 11:45:35;;;;;;;;;;;;;;;7.64;66.89;98132.22;4515429;31;34262;-89
2022/12/09 11:48:07;;;;;;;;;;;;;;;7.53;67.31;98114.06;4515279;31;35371;-90
2022/12/09 11:50:54;;;;;;;;;;;;;;;7.50;67.13;98124.34;4515188;31;34299;-89
2022/12/09 11:53:31;;;;;;;;;;;;;;;7.67;67.26;98116.75;4513392;31;33573;-89
2022/12/09 11:56:00;;;;;;;;;;;;;;;7.31;68.44;98124.22;4515227;31;34973;-89
2022/12/09 11:58:29;;;;;;;;;;;;;;;6.93;69.56;98115.22;4514008;31;34611;-87
2022/12/09 12:01:07;;;;;;;;;;;;;;;7.32;69.05;98100.16;4514028;31;34418;-89
2022/12/09 12:03:37;;;;;;;;;;;;;;;7.43;68.84;98086.50;4515404;31;34148;-90
2022/12/09 12:06:05;;;;;;;;;;;;;;;7.17;69.70;98081.97;4513942;31;34034;-90
2022/12/09 12:08:36;;;;;;;;;;;;;;;7.38;69.04;98070.97;4513847;31;34849;-89
2022/12/09 12:11:07;;;;;;;;;;;;;;;7.36;68.88;98079.56;4513890;31;34484;-90
2022/12/09 12:13:43;;;;;;;;;;;;;;;7.89;66.53;98082.50;4515222;31;34003;-90
2022/12/09 12:16:19;;;;;;;;;;;;;;;8.06;66.43;98085.16;4515299;31;34265;-89
2022/12/09 12:18:58;;;;;;;;;;;;;;;8.32;65.59;98097.34;4513748;31;34593;-87
2022/12/09 12:21:44;;;;;;;;;;;;;;;7.75;66.89;98089.28;4513795;31;34930;-90
2022/12/09 12:24:19;;;;;;;;;;;;;;;7.13;69.34;98084.53;4515453;31;33729;-90
2022/12/09 12:27:07;;;;;;;;;;;;;;;7.78;67.76;98061.81;4513648;31;34259;-89
2022/12/09 12:29:37;;;;;;;;;;;;;;;7.91;67.00;98064.44;4515074;31;35192;-89
2022/12/09 12:32:17;;;;;;;;;;;;;;;7.90;67.48;98053.25;4515109;31;34755;-89
2022/12/09 12:34:53;;;;;;;;;;;;;;;7.24;68.93;98050.25;4515089;31;33539;-89
2022/12/09 12:37:29;;;;;;;;;;;;;;;7.77;67.47;98060.09;4515039;31;33882;-89
2022/12/09 12:39:59;;;;;;;;;;;;;;;7.35;68.70;98059.75;4515224;31;34634;-90
2022/12/09 12:42:36;;;;;;;;;;;;;;;7.36;68.81;98058.94;4513616;31;34931;-90
2022/12/09 12:47:56;;;;;;;;;;;;;;;7.96;67.51;98052.44;4514851;31;34276;-86
2022/12/09 12:50:27;;;;;;;;;;;;;;;7.36;68.60;98059.78;4513372;31;35063;-90
2022/12/09 12:53:01;;;;;;;;;;;;;;;7.44;68.53;98045.25;4513565;31;34312;-90
2022/12/09 12:56:00;;;;;;;;;;;;;;;7.05;70.14;98036.34;4514544;31;34166;-86
2022/12/09 12:58:27;;;;;;;;;;;;;;;6.82;71.37;98030.12;4479639;31;34335;-90
2022/12/09 13:01:01;;;;;;;;;;;;;;;6.86;70.90;98046.44;4514912;31;34991;-89
2022/12/09 13:03:37;;;;;;;;;;;;;;;7.28;69.83;98040.84;4514330;31;34584;-87
2022/12/09 13:06:04;;;;;;;;;;;;;;;7.16;69.56;98036.44;4512974;31;33837;-86
2022/12/09 13:08:44;;;;;;;;;;;;;;;7.00;70.97;98034.56;4513457;31;34266;-86
2022/12/09 13:11:14;;;;;;;;;;;;;;;7.65;68.25;98025.59;4514366;31;34253;-89
2022/12/09 13:13:43;;;;;;;;;;;;;;;7.36;69.48;98008.22;4513258;31;34182;-88